Lennep, Montana
Current Conditions -  °F | °C
As of 4:53 PM on Wednesday 26 Nov 2014 (Local Time) from KLVM Reporting Station
Overcast Overcast  
Wind Chill: 19°   Ceiling: 12000
Heat Index: 27°   Visibility: 10mi
Dew Point: 24°   Wind: 8mph
Humidity: 89%   Direction: 80°E
Pressure: 30.11"   Gusts: NA
Location:  46.4682°N, 110.512°W
Report Text: KLVM 262353Z AUTO 08007KT 10SM FEW075 OVC120 M03/M04 A3011 RMK AO2 SLP237 60000 T10281044 11017 21028 50002
Loading
Personal Weather Stations






























Interactive Weather Map New forecast layout! Learn more

10-Day Weather Forecast

Advertisements
Track Severe Weather on mobile